Jonathan Thompson

Recruteur - Millwall
9 Déc 2027
Jeudi
Processus

Personnalité

Adaptabilité (18) Ambition (4) Controverse (1) Loyauté (20) Pression (18) Professionnalisme (20) Sportivité (13) Tempérament (14)

Profil

Style d'entraînement Démocratique
Diplôme Continental A
Détermination 11
Gestion des joueurs 6
Motivation 9
Discipline 10
Satisfaction professionnelle
100%
Fatigue
0%
Rôle Recruteur
Salaire 58.6K p/s
Contrat 14.03.2028

Performance

Comportement Bon
Efficacité de l'entraînement
38%
Développement des joueurs
45%
Prévention des blessures
20%
Mise en place tactique
45%

Événements récents

A participé à une réunion de recrutement 7j
A participé à une réunion de recrutement 14j
A observé un match 14j
A participé à une réunion de recrutement 21j
Anniversaire 21j
A observé un match 21j
A participé à une réunion de recrutement 28j
A observé un match 28j

Suivi en cours

82
Joueur Club Statut Capacité Confiance Observé Dernière observation Dernier vote
Eric Bocat Stoke City Perdu 116 / 118 72% 1 28.06.2027 -
Adam Bakoune Ospitaletto Actif 102 / 107 40% 1 30.05.2027 -
Dylan Lawlor Cardiff City Actif 114 / 129 40% 1 30.05.2027 -
Jofre Torrents Ajax Actif 130 / 128 40% 6 28.05.2027 -
Ibrahim Maza Bayer Leverkusen Actif 152 / 163 40% 4 28.05.2027 -
Christos Mouzakitis Hull City Actif 133 / 132 40% 1 28.05.2027 -
Keagan Phiri Platinum Stars Actif 110 / 114 40% 3 27.05.2027 -
Ernie Weaver AFC Wimbledon Actif 101 / 109 40% 5 26.05.2027 -
Daniel Dennis Ikorodu City Actif 86 / 117 40% 1 26.05.2027 -
Million Manhoef Stoke City Actif 124 / 137 40% 1 24.05.2027 -
Milan van Ewijk Mansfield Town Actif 123 / 126 40% 1 24.05.2027 -
Mandla Erasmus SuperSport United Actif 118 / 106 40% 4 20.05.2027 -
Derensili Sanches Fernandes Huddersfield Town Actif 129 / 140 40% 3 20.05.2027 -
Joel Ezra Enyimba Actif 92 / 96 40% 1 20.05.2027 -
David Damboama El-Kanemi Warriors Actif 83 / 84 40% 1 20.05.2027 -
Amine Adli Bournemouth Actif 148 / 156 40% 1 20.05.2027 -
Kwadwo Baah Watford Actif 121 / 142 40% 3 19.05.2027 -
Cian Ashford Cardiff City Actif 120 / 121 40% 1 19.05.2027 -
Jack McGlynn Stoke City Actif 139 / 139 40% 2 16.05.2027 -
Ali Ahmed Norwich City Actif 124 / 119 40% 3 16.05.2027 -
Stanley Mills Oxford United Actif 120 / 131 40% 2 16.05.2027 -
Isaac Price West Bromwich Albion Actif 131 / 133 40% 1 14.05.2027 -
Zeidane Inoussa Swansea City Actif 124 / 132 40% 1 14.05.2027 -
Edwin Asamoah Berekum Chelsea Actif 75 / 95 40% 3 13.05.2027 -
Tom Fellows Southampton Actif 128 / 144 40% 3 13.05.2027 -
Davide Bartesaghi AC Milan Actif 131 / 140 40% 2 13.05.2027 -
Ethan Galbraith Swansea City Actif 137 / 146 40% 1 12.05.2027 -
Tomáš Rigo Stoke City Actif 137 / 144 40% 1 10.05.2027 -
Sascha Britschgi Padova Actif 113 / 117 40% 2 09.05.2027 -
Riley Owen Trento Actif 96 / 104 40% 4 09.05.2027 -
Hlompho Lorch Ajax Cape Town Actif 104 / 94 40% 3 09.05.2027 -
Kevin Fulham Actif 149 / 138 40% 2 09.05.2027 -
Percy Jali Free State Stars Actif 85 / 114 40% 1 07.05.2027 -
Josh Smith Accrington Stanley Actif 81 / 71 40% 1 07.05.2027 -
Finn Azaz Southampton Actif 125 / 133 40% 2 06.05.2027 -
Max Bird Birmingham Actif 128 / 118 40% 3 06.05.2027 -
Romano Schmid Frosinone Actif 147 / 134 40% 1 06.05.2027 -
Mohamed Belloumi Hull City Actif 131 / 124 40% 1 05.05.2027 -
Scott Twine Bristol City Actif 125 / 127 40% 2 04.05.2027 -
Lucas Bergvall Tottenham Perdu 151 / 155 40% 2 29.04.2027 -
Felix Afful Liberty Professionals Actif 76 / 74 40% 1 29.04.2027 -
Oswin Appollis Orlando Pirates Actif 114 / 128 40% 2 28.04.2027 -
Welington Southampton Actif 139 / 119 40% 2 27.04.2027 -
Malick Fofana Sunderland Actif 143 / 142 40% 1 27.04.2027 -
Jack Diamond Stockport County Actif 112 / 112 40% 1 27.04.2027 -
Mohamed-Ali Cho Hull City Actif 128 / 144 40% 1 26.04.2027 -
Christ Inao Oulaï Fiorentina Actif 139 / 130 40% 4 25.04.2027 -
Keagan Tau Ajax Cape Town Actif 96 / 88 40% 1 25.04.2027 -
Gonzalo Fulham Actif 137 / 149 40% 1 23.04.2027 -
Jason Knight Bristol City Actif 134 / 139 40% 1 23.04.2027 -
Imrân Louza Watford Actif 131 / 142 40% 1 21.04.2027 -
Bernardo Lima Porto Actif 96 / 121 40% 2 19.04.2027 -
Jan Bürger Gillingham Actif 112 / 112 40% 4 19.04.2027 -
Joel McGregor Swindon Town Actif 85 / 97 40% 1 19.04.2027 -
Matías Gómez Granada Actif 113 / 119 40% 2 18.04.2027 -
Kasey McAteer Ipswich Town Actif 134 / 135 40% 1 15.04.2027 -
David Ozoh Derby County Actif 113 / 123 40% 2 14.04.2027 -
Georginio Rutter Brighton Actif 139 / 148 40% 1 10.04.2027 -
Isaiah Jones Luton Town Actif 133 / 126 40% 1 10.04.2027 -
Kazunari Kita Real Sociedad Actif 92 / 110 40% 2 05.04.2027 -
Rivaldo Grobler Free State Stars Actif 90 / 127 40% 1 05.04.2027 -
Tshepang Moremi Orlando Pirates Actif 116 / 130 40% 2 03.04.2027 -
Morgan Whittaker Middlesbrough Actif 142 / 138 40% 2 02.04.2027 -
David Turnbull Cardiff City Actif 121 / 113 40% 2 02.04.2027 -
Mpho Khethang AS Police Actif 86 / 105 40% 2 31.03.2027 -
Joe Gelhardt Hull City Actif 136 / 125 40% 1 29.03.2027 -
Gonçalo Oliveira Benfica Actif 103 / 124 40% 1 29.03.2027 -
Richard Koné Queens Park Rangers Actif 116 / 121 40% 1 26.03.2027 -
Mikey Johnston West Bromwich Albion Actif 119 / 135 40% 1 26.03.2027 -
Jesús Rodríguez Como Actif 148 / 137 40% 1 26.03.2027 -
Giorgi Chakvetadze Watford Actif 137 / 121 40% 1 25.03.2027 -
Zane Albarus Cambridge United Actif 86 / 94 40% 1 24.03.2027 -
Johan Manzambi Newcastle United Actif 142 / 147 40% 1 24.03.2027 -
Adrien Truffert Bournemouth Actif 158 / 136 40% 2 23.03.2027 -
Zeki Amdouni Burnley Actif 135 / 123 40% 1 23.03.2027 -
Josh King Chelsea Perdu 129 / 149 40% 1 18.03.2027 -
Daniel Costa Sporting CP Actif 90 / 107 40% 1 18.03.2027 -
Ronwen Phiri Platinum Stars Actif 97 / 103 40% 1 17.03.2027 -
Cathal Heffernan Harrogate Town Actif 90 / 89 40% 1 07.03.2027 -
James Dornelly Peterborough United Actif 110 / 94 40% 1 05.03.2027 -
Martim Cunha Porto Actif 97 / 114 40% 1 04.03.2027 -
Liam Roberts Mansfield Town Actif 113 / 123 69% 1 07.01.2027 -